createdAt,value
2023-01-28T00:00:34.641Z,101130.59
2023-01-28T00:03:01.155Z,101129.44
2023-01-28T00:05:29.782Z,101118.19
2023-01-28T00:07:57.675Z,101122.41
2023-01-28T00:10:24.219Z,101113.03
2023-01-28T00:12:50.928Z,101120.00
2023-01-28T00:15:17.447Z,101112.28
2023-01-28T00:17:43.824Z,101119.09
2023-01-28T00:20:10.776Z,101120.91
2023-01-28T00:22:37.185Z,101111.34
2023-01-28T00:25:03.679Z,101119.97
2023-01-28T00:27:30.956Z,101109.69
2023-01-28T00:29:57.357Z,101114.97
2023-01-28T00:32:23.738Z,101114.09
2023-01-28T00:34:50.203Z,101114.06
2023-01-28T00:37:16.576Z,101115.75
2023-01-28T00:39:43.045Z,101111.28
2023-01-28T00:42:09.438Z,101112.22
2023-01-28T00:44:36.474Z,101112.94
2023-01-28T00:47:02.894Z,101120.94
2023-01-28T00:49:29.458Z,101126.19
2023-01-28T00:51:55.826Z,101133.94
2023-01-28T00:54:22.236Z,101126.97
2023-01-28T00:56:48.628Z,101117.25
2023-01-28T00:59:15.294Z,101122.53
2023-01-28T01:01:42.025Z,101126.06
2023-01-28T01:04:08.493Z,101121.75
2023-01-28T01:06:37.679Z,101120.69
2023-01-28T01:09:08.441Z,101119.78
2023-01-28T01:11:35.729Z,101114.63
2023-01-28T01:14:04.084Z,101119.88
2023-01-28T01:16:33.367Z,101123.41
2023-01-28T01:19:00.280Z,101123.44
2023-01-28T01:21:28.632Z,101125.06
2023-01-28T01:23:55.721Z,101125.81
2023-01-28T01:26:22.655Z,101118.06
2023-01-28T01:28:51.246Z,101113.66
2023-01-28T01:31:19.654Z,101126.84
2023-01-28T01:33:47.963Z,101125.09
2023-01-28T01:36:17.094Z,101128.75
2023-01-28T01:38:43.451Z,101133.09
2023-01-28T01:41:22.597Z,101132.94
2023-01-28T01:43:53.840Z,101140.47
2023-01-28T01:46:33.912Z,101145.03
2023-01-28T01:49:12.270Z,101137.25
2023-01-28T01:51:39.332Z,101138.97
2023-01-28T01:54:06.422Z,101143.41
2023-01-28T01:56:37.749Z,101146.72
2023-01-28T01:59:05.569Z,101152.16
2023-01-28T02:01:32.674Z,101150.56
2023-01-28T02:04:09.020Z,101150.28
2023-01-28T02:06:37.718Z,101160.84
2023-01-28T02:09:21.796Z,101160.66
2023-01-28T02:11:48.739Z,101150.28
2023-01-28T02:14:29.426Z,101145.09
2023-01-28T02:16:57.793Z,101154.63
2023-01-28T02:19:30.504Z,101150.84
2023-01-28T02:22:05.615Z,101153.56
2023-01-28T02:24:46.990Z,101138.84
2023-01-28T02:27:13.357Z,101150.41
2023-01-28T02:29:50.899Z,101155.38
2023-01-28T02:32:27.504Z,101154.44
2023-01-28T02:35:06.954Z,101156.28
2023-01-28T02:37:43.716Z,101154.66
2023-01-28T02:40:14.851Z,101155.59
2023-01-28T02:42:41.629Z,101146.44
2023-01-28T02:46:02.327Z,101160.50
2023-01-28T02:48:28.789Z,101156.28
2023-01-28T02:51:21.337Z,101161.53
2023-01-28T02:54:03.765Z,101151.97
2023-01-28T02:56:38.750Z,101153.56
2023-01-28T02:59:34.201Z,101159.78
2023-01-28T03:02:32.265Z,101168.28
2023-01-28T03:05:10.574Z,101170.97
2023-01-28T03:07:39.261Z,101169.19
2023-01-28T03:10:11.961Z,101167.31
2023-01-28T03:13:00.550Z,101170.06
2023-01-28T03:15:51.331Z,101171.88
2023-01-28T03:18:42.624Z,101168.22
2023-01-28T03:21:33.301Z,101174.19
2023-01-28T03:24:30.447Z,101181.28
2023-01-28T03:27:29.353Z,101178.59
2023-01-28T03:30:18.211Z,101168.94
2023-01-28T03:33:03.944Z,101184.72
2023-01-28T03:35:52.725Z,101176.88
2023-01-28T03:38:22.928Z,101185.44
2023-01-28T03:40:57.774Z,101184.72
2023-01-28T03:43:24.493Z,101196.97
2023-01-28T03:45:51.557Z,101190.13
2023-01-28T03:48:23.490Z,101197.13
2023-01-28T03:50:50.945Z,101196.22
2023-01-28T03:53:18.534Z,101199.91
2023-01-28T03:55:47.009Z,101198.03
2023-01-28T03:58:14.510Z,101204.41
2023-01-28T04:00:42.138Z,101212.00
2023-01-28T04:03:17.883Z,101209.53
2023-01-28T04:05:45.557Z,101208.44
2023-01-28T04:08:12.216Z,101217.19
2023-01-28T04:10:39.727Z,101218.97
2023-01-28T04:13:07.242Z,101211.81
2023-01-28T04:15:34.002Z,101215.41
2023-01-28T04:18:00.893Z,101216.41
2023-01-28T04:20:27.290Z,101219.19
2023-01-28T04:22:53.698Z,101214.72
2023-01-28T04:25:20.108Z,101216.28
2023-01-28T04:27:46.487Z,101211.00
2023-01-28T04:30:12.939Z,101206.66
2023-01-28T04:32:39.440Z,101210.16
2023-01-28T04:35:06.205Z,101212.09
2023-01-28T04:37:32.600Z,101211.00
2023-01-28T04:39:59.067Z,101204.22
2023-01-28T04:42:25.453Z,101204.97
2023-01-28T04:44:51.844Z,101203.19
2023-01-28T04:47:19.866Z,101209.72
2023-01-28T04:49:46.283Z,101215.81
2023-01-28T04:52:12.682Z,101207.03
2023-01-28T04:54:39.155Z,101214.97
2023-01-28T04:57:05.673Z,101206.06
2023-01-28T04:59:32.110Z,101215.78
2023-01-28T05:01:58.583Z,101212.19
2023-01-28T05:04:25.040Z,101208.72
2023-01-28T05:06:51.415Z,101222.66
2023-01-28T05:09:17.857Z,101210.34
2023-01-28T05:11:44.279Z,101222.59
2023-01-28T05:14:10.737Z,101217.28
2023-01-28T05:16:37.140Z,101229.47
2023-01-28T05:19:03.647Z,101226.09
2023-01-28T05:21:30.013Z,101226.84
2023-01-28T05:23:56.418Z,101225.88
2023-01-28T05:26:22.838Z,101237.38
2023-01-28T05:28:49.222Z,101227.84
2023-01-28T05:31:15.562Z,101226.09
2023-01-28T05:33:41.886Z,101236.50
2023-01-28T05:36:08.322Z,101243.59
2023-01-28T05:38:34.864Z,101228.72
2023-01-28T05:41:01.234Z,101236.56
2023-01-28T05:43:28.652Z,101245.19
2023-01-28T05:45:55.093Z,101243.31
2023-01-28T05:48:21.570Z,101231.09
2023-01-28T05:50:48.092Z,101239.84
2023-01-28T05:53:14.587Z,101244.53
2023-01-28T05:55:40.923Z,101243.41
2023-01-28T05:58:07.350Z,101243.47
2023-01-28T06:00:33.747Z,101256.78
2023-01-28T06:03:00.122Z,101262.06
2023-01-28T06:05:26.523Z,101261.66
2023-01-28T06:07:53.063Z,101266.03
2023-01-28T06:10:19.461Z,101268.84
2023-01-28T06:12:45.906Z,101274.34
2023-01-28T06:15:12.349Z,101265.31
2023-01-28T06:17:38.931Z,101272.28
2023-01-28T06:20:05.653Z,101268.75
2023-01-28T06:22:32.034Z,101280.91
2023-01-28T06:24:58.382Z,101284.34
2023-01-28T06:27:24.791Z,101292.19
2023-01-28T06:29:51.186Z,101284.59
2023-01-28T06:32:17.647Z,101292.41
2023-01-28T06:34:44.033Z,101287.16
2023-01-28T06:37:13.416Z,101292.63
2023-01-28T06:39:39.858Z,101291.81
2023-01-28T06:42:06.355Z,101293.56
2023-01-28T06:44:32.814Z,101303.78
2023-01-28T06:46:59.165Z,101300.44
2023-01-28T06:49:25.597Z,101303.19
2023-01-28T06:51:52.577Z,101306.72
2023-01-28T06:54:19.026Z,101309.31
2023-01-28T06:56:45.511Z,101310.22
2023-01-28T06:59:11.941Z,101310.38
2023-01-28T07:01:38.397Z,101312.16
2023-01-28T07:04:04.956Z,101306.97
2023-01-28T07:06:31.321Z,101318.34
2023-01-28T07:08:57.657Z,101313.78
2023-01-28T07:11:24.029Z,101313.78
2023-01-28T07:13:50.697Z,101310.25
2023-01-28T07:16:17.409Z,101314.53
2023-01-28T07:18:43.833Z,101321.22
2023-01-28T07:21:10.260Z,101323.34
2023-01-28T07:23:36.799Z,101331.06
2023-01-28T07:26:04.596Z,101333.78
2023-01-28T07:28:31.598Z,101325.91
2023-01-28T07:30:58.076Z,101338.19
2023-01-28T07:33:24.895Z,101339.19
2023-01-28T07:35:51.378Z,101335.88
2023-01-28T07:38:17.801Z,101337.63
2023-01-28T07:40:45.309Z,101340.25
2023-01-28T07:43:11.779Z,101341.75
2023-01-28T07:45:38.430Z,101341.34
2023-01-28T07:48:07.349Z,101337.78
2023-01-28T07:50:36.343Z,101345.72
2023-01-28T07:53:05.303Z,101344.03
2023-01-28T07:55:32.134Z,101349.47
2023-01-28T07:58:00.170Z,101353.56
2023-01-28T08:00:29.324Z,101354.34
2023-01-28T08:03:01.126Z,101352.69
2023-01-28T08:05:43.357Z,101354.28
2023-01-28T08:08:10.871Z,101353.19
2023-01-28T08:10:37.927Z,101359.56
2023-01-28T08:13:04.760Z,101353.44
2023-01-28T08:15:34.076Z,101355.41
2023-01-28T08:18:01.655Z,101362.88
2023-01-28T08:20:29.096Z,101356.84
2023-01-28T08:23:14.992Z,101357.94
2023-01-28T08:25:41.487Z,101367.19
2023-01-28T08:28:08.827Z,101365.47
2023-01-28T08:30:37.795Z,101362.84
2023-01-28T08:33:06.121Z,101372.44
2023-01-28T08:35:33.285Z,101362.22
2023-01-28T08:38:01.315Z,101355.53
2023-01-28T08:40:28.321Z,101366.09
2023-01-28T08:42:55.445Z,101359.47
2023-01-28T08:45:27.306Z,101363.50
2023-01-28T08:47:59.646Z,101373.88
2023-01-28T08:50:29.592Z,101378.94
2023-01-28T08:52:57.873Z,101371.16
2023-01-28T08:55:25.080Z,101363.38
2023-01-28T08:57:51.524Z,101368.22
2023-01-28T09:00:18.493Z,101371.69
2023-01-28T09:02:45.054Z,101381.63
2023-01-28T09:05:11.709Z,101372.78
2023-01-28T09:07:39.069Z,101377.13
2023-01-28T09:10:06.259Z,101376.16
2023-01-28T09:12:33.075Z,101399.22
2023-01-28T09:14:59.545Z,101392.91
2023-01-28T09:17:25.937Z,101394.00
2023-01-28T09:19:52.335Z,101403.50
2023-01-28T09:22:18.749Z,101394.44
2023-01-28T09:24:45.154Z,101393.75
2023-01-28T09:27:11.571Z,101395.66
2023-01-28T09:29:38.705Z,101401.63
2023-01-28T09:32:07.123Z,101399.06
2023-01-28T09:34:33.919Z,101397.31
2023-01-28T09:37:00.675Z,101397.09
2023-01-28T09:39:28.499Z,101397.13
2023-01-28T09:42:06.559Z,101393.84
2023-01-28T09:44:49.388Z,101401.06
2023-01-28T09:47:24.068Z,101398.41
2023-01-28T09:49:53.389Z,101405.88
2023-01-28T09:52:23.409Z,101402.47
2023-01-28T09:54:58.539Z,101415.53
2023-01-28T09:57:31.261Z,101412.25
2023-01-28T09:59:58.679Z,101421.72
2023-01-28T10:02:36.491Z,101430.78
2023-01-28T10:05:24.711Z,101421.16
2023-01-28T10:08:17.575Z,101418.28
2023-01-28T10:10:55.546Z,101418.53
2023-01-28T10:13:48.074Z,101421.91
2023-01-28T10:16:38.445Z,101421.31
2023-01-28T10:19:17.187Z,101420.47
2023-01-28T10:21:58.868Z,101425.53
2023-01-28T10:24:35.763Z,101427.44
2023-01-28T10:27:09.803Z,101432.59
2023-01-28T10:29:36.753Z,101433.63
2023-01-28T10:32:13.769Z,101437.19
2023-01-28T10:34:40.246Z,101430.09
2023-01-28T10:37:06.731Z,101439.72
2023-01-28T10:39:33.910Z,101431.81
2023-01-28T10:42:00.304Z,101433.66
2023-01-28T10:44:42.264Z,101437.03
2023-01-28T10:47:16.706Z,101433.44
2023-01-28T10:49:53.127Z,101427.34
2023-01-28T10:52:19.494Z,101426.28
2023-01-28T10:54:46.037Z,101425.56
2023-01-28T10:57:18.898Z,101440.53
2023-01-28T10:59:45.763Z,101436.34
2023-01-28T11:02:24.087Z,101435.81
2023-01-28T11:05:01.175Z,101444.47
2023-01-28T11:07:27.654Z,101436.31
2023-01-28T11:09:54.041Z,101440.63
2023-01-28T11:12:29.686Z,101436.44
2023-01-28T11:15:01.015Z,101438.28
2023-01-28T11:17:30.912Z,101427.72
2023-01-28T11:20:00.889Z,101433.75
2023-01-28T11:22:33.032Z,101430.97
2023-01-28T11:25:19.331Z,101425.59
2023-01-28T11:27:51.385Z,101443.81
2023-01-28T11:30:28.961Z,101437.66
2023-01-28T11:33:17.614Z,101432.50
2023-01-28T11:35:56.451Z,101442.16
2023-01-28T11:38:26.348Z,101444.84
2023-01-28T11:40:55.314Z,101437.81
2023-01-28T11:43:23.927Z,101428.28
2023-01-28T11:46:27.981Z,101437.09
2023-01-28T11:49:19.714Z,101436.94
2023-01-28T11:52:05.044Z,101434.94
2023-01-28T11:55:11.073Z,101422.78
2023-01-28T11:57:49.610Z,101427.84
2023-01-28T12:00:32.784Z,101422.59
2023-01-28T12:03:20.369Z,101413.81
2023-01-28T12:05:51.964Z,101425.41
2023-01-28T12:08:25.710Z,101427.19
2023-01-28T12:11:10.744Z,101422.81
2023-01-28T12:13:40.164Z,101426.63
2023-01-28T12:16:25.330Z,101421.19
2023-01-28T12:19:23.564Z,101421.38
2023-01-28T12:22:07.040Z,101424.69
2023-01-28T12:25:21.029Z,101423.75
2023-01-28T12:28:02.925Z,101428.78
2023-01-28T12:30:41.116Z,101423.72
2023-01-28T12:33:10.361Z,101425.53
2023-01-28T12:36:18.279Z,101427.00
2023-01-28T12:38:53.162Z,101424.31
2023-01-28T12:41:28.214Z,101419.84
2023-01-28T12:44:02.328Z,101417.13
2023-01-28T12:46:42.795Z,101407.31
2023-01-28T12:49:16.927Z,101411.91
2023-01-28T12:51:49.084Z,101414.66
2023-01-28T12:54:38.140Z,101409.53
2023-01-28T12:57:04.752Z,101412.41
2023-01-28T12:59:39.685Z,101411.25
2023-01-28T13:02:12.100Z,101418.78
2023-01-28T13:05:03.292Z,101412.81
2023-01-28T13:07:57.174Z,101419.94
2023-01-28T13:10:35.326Z,101415.66
2023-01-28T13:13:03.403Z,101417.47
2023-01-28T13:15:30.847Z,101417.16
2023-01-28T13:18:03.360Z,101425.09
2023-01-28T13:20:59.224Z,101421.38
2023-01-28T13:23:31.984Z,101428.50
2023-01-28T13:26:10.508Z,101430.16
2023-01-28T13:28:37.077Z,101441.03
2023-01-28T13:31:17.476Z,101452.44
2023-01-28T13:33:54.374Z,101448.13
2023-01-28T13:36:44.696Z,101444.09
2023-01-28T13:39:17.031Z,101462.69
2023-01-28T13:41:49.149Z,101462.06
2023-01-28T13:44:18.498Z,101458.41
2023-01-28T13:46:44.960Z,101455.81
2023-01-28T13:49:17.010Z,101464.50
2023-01-28T13:52:01.235Z,101472.41
2023-01-28T13:54:29.379Z,101469.22
2023-01-28T13:56:58.695Z,101469.13
2023-01-28T13:59:40.946Z,101466.69
2023-01-28T14:02:17.428Z,101476.34
2023-01-28T14:04:58.702Z,101474.66
2023-01-28T14:07:31.103Z,101475.91
2023-01-28T14:10:00.499Z,101471.75
2023-01-28T14:13:01.021Z,101470.00
2023-01-28T14:15:55.476Z,101477.38
2023-01-28T14:18:29.529Z,101472.59
2023-01-28T14:21:00.601Z,101475.28
2023-01-28T14:23:30.999Z,101474.94
2023-01-28T14:26:18.851Z,101480.41
2023-01-28T14:29:20.362Z,101478.41
2023-01-28T14:31:47.592Z,101484.09
2023-01-28T14:34:31.895Z,101482.00
2023-01-28T14:37:20.939Z,101479.69
2023-01-28T14:39:59.893Z,101480.44
2023-01-28T14:42:30.927Z,101490.47
2023-01-28T14:45:09.684Z,101501.47
2023-01-28T14:48:00.785Z,101490.44
2023-01-28T14:50:47.834Z,101482.31
2023-01-28T14:53:33.114Z,101484.69
2023-01-28T14:56:23.363Z,101478.47
2023-01-28T14:59:04.524Z,101481.00
2023-01-28T15:01:31.473Z,101471.75
2023-01-28T15:03:58.256Z,101458.66
2023-01-28T15:06:35.512Z,101468.41
2023-01-28T15:09:11.994Z,101469.34
2023-01-28T15:11:41.386Z,101476.84
2023-01-28T15:14:25.661Z,101470.72
2023-01-28T15:16:52.295Z,101476.47
2023-01-28T15:19:27.382Z,101476.34
2023-01-28T15:21:56.867Z,101479.06
2023-01-28T15:24:23.875Z,101478.75
2023-01-28T15:26:50.382Z,101481.28
2023-01-28T15:29:27.046Z,101471.75
2023-01-28T15:31:53.684Z,101471.06
2023-01-28T15:34:20.680Z,101471.75
2023-01-28T15:36:49.684Z,101470.03
2023-01-28T15:39:18.690Z,101457.88
2023-01-28T15:41:50.134Z,101459.22
2023-01-28T15:44:19.278Z,101450.75
2023-01-28T15:46:45.872Z,101455.38
2023-01-28T15:49:17.808Z,101450.25
2023-01-28T15:51:50.861Z,101460.09
2023-01-28T15:54:17.969Z,101455.63
2023-01-28T15:56:44.628Z,101471.44
2023-01-28T15:59:25.388Z,101485.66
2023-01-28T16:01:52.704Z,101474.69
2023-01-28T16:04:28.386Z,101472.44
2023-01-28T16:06:58.300Z,101478.81
2023-01-28T16:09:33.774Z,101461.63
2023-01-28T16:12:07.329Z,101476.53
2023-01-28T16:14:46.559Z,101474.56
2023-01-28T16:17:22.936Z,101478.19
2023-01-28T16:19:59.795Z,101487.19
2023-01-28T16:22:34.895Z,101482.56
2023-01-28T16:25:01.849Z,101485.00
2023-01-28T16:27:31.225Z,101494.34
2023-01-28T16:29:57.677Z,101493.63
2023-01-28T16:32:33.128Z,101495.25
2023-01-28T16:35:00.726Z,101500.88
2023-01-28T16:40:00.420Z,101513.31
2023-01-28T16:42:28.443Z,101513.59
2023-01-28T16:44:54.798Z,101512.09
2023-01-28T16:47:21.140Z,101511.44
2023-01-28T16:49:47.621Z,101495.94
2023-01-28T16:52:14.213Z,101493.34
2023-01-28T16:54:43.325Z,101504.75
2023-01-28T16:57:14.007Z,101504.75
2023-01-28T16:59:40.365Z,101503.81
2023-01-28T17:02:06.795Z,101515.78
2023-01-28T17:04:33.248Z,101511.72
2023-01-28T17:06:59.595Z,101512.91
2023-01-28T17:09:26.098Z,101521.56
2023-01-28T17:11:52.490Z,101517.34
2023-01-28T17:14:18.846Z,101516.06
2023-01-28T17:16:45.210Z,101517.91
2023-01-28T17:19:11.587Z,101516.19
2023-01-28T17:21:38.016Z,101518.47
2023-01-28T17:24:05.068Z,101528.34
2023-01-28T17:26:31.592Z,101512.69
2023-01-28T17:28:57.964Z,101519.19
2023-01-28T17:31:26.310Z,101523.22
2023-01-28T17:33:54.959Z,101530.06
2023-01-28T17:36:21.722Z,101538.38
2023-01-28T17:38:48.583Z,101542.72
2023-01-28T17:41:17.188Z,101541.16
2023-01-28T17:43:43.732Z,101532.59
2023-01-28T17:46:14.702Z,101531.56
2023-01-28T17:48:42.894Z,101525.31
2023-01-28T17:51:09.906Z,101514.28
2023-01-28T17:53:36.312Z,101528.94
2023-01-28T17:56:02.899Z,101537.94
2023-01-28T17:58:29.588Z,101547.63
2023-01-28T18:00:56.048Z,101555.28
2023-01-28T18:03:22.615Z,101565.72
2023-01-28T18:05:59.067Z,101569.69
2023-01-28T18:08:26.119Z,101572.00
2023-01-28T18:10:52.754Z,101568.72
2023-01-28T18:13:19.135Z,101576.28
2023-01-28T18:15:45.462Z,101567.88
2023-01-28T18:18:11.849Z,101582.06
2023-01-28T18:20:38.253Z,101579.03
2023-01-28T18:23:04.715Z,101575.28
2023-01-28T18:25:31.050Z,101581.25
2023-01-28T18:27:57.398Z,101588.19
2023-01-28T18:30:23.929Z,101591.41
2023-01-28T18:32:50.556Z,101591.63
2023-01-28T18:35:17.538Z,101597.91
2023-01-28T18:37:44.100Z,101595.31
2023-01-28T18:40:11.355Z,101605.47
2023-01-28T18:42:37.845Z,101613.47
2023-01-28T18:45:05.087Z,101613.97
2023-01-28T18:47:31.495Z,101618.00
2023-01-28T18:49:57.898Z,101619.28
2023-01-28T18:52:24.367Z,101621.38
2023-01-28T18:54:50.930Z,101611.19
2023-01-28T18:57:19.356Z,101604.56
2023-01-28T18:59:46.922Z,101610.19
2023-01-28T19:02:14.713Z,101614.34
2023-01-28T19:04:42.215Z,101615.59
2023-01-28T19:07:11.767Z,101617.31
2023-01-28T19:09:38.473Z,101619.44
2023-01-28T19:12:06.172Z,101613.50
2023-01-28T19:14:32.576Z,101602.88
2023-01-28T19:16:59.249Z,101611.19
2023-01-28T19:19:25.945Z,101621.94
2023-01-28T19:21:53.453Z,101618.19
2023-01-28T19:24:19.867Z,101617.44
2023-01-28T19:26:46.371Z,101628.28
2023-01-28T19:29:15.688Z,101619.44
2023-01-28T19:31:43.561Z,101627.28
2023-01-28T19:34:10.593Z,101635.06
2023-01-28T19:36:37.508Z,101636.66
2023-01-28T19:39:07.260Z,101642.72
2023-01-28T19:41:34.389Z,101632.94
2023-01-28T19:44:01.280Z,101627.09
2023-01-28T19:46:28.139Z,101641.91
2023-01-28T19:48:55.208Z,101643.88
2023-01-28T19:51:21.801Z,101635.06
2023-01-28T19:53:51.286Z,101636.16
2023-01-28T19:56:19.342Z,101632.72
2023-01-28T19:58:46.584Z,101619.78
2023-01-28T20:01:15.705Z,101632.59
2023-01-28T20:03:42.931Z,101625.34
2023-01-28T20:06:15.385Z,101620.53
2023-01-28T20:08:42.383Z,101622.47
2023-01-28T20:11:15.503Z,101632.16
2023-01-28T20:13:44.398Z,101627.81
2023-01-28T20:16:16.452Z,101639.00
2023-01-28T20:18:43.148Z,101643.59
2023-01-28T20:21:09.583Z,101649.31
2023-01-28T20:23:35.946Z,101653.09
2023-01-28T20:26:02.469Z,101655.59
2023-01-28T20:28:29.448Z,101652.06
2023-01-28T20:30:56.593Z,101665.53
2023-01-28T20:33:23.556Z,101663.66
2023-01-28T20:35:49.992Z,101662.81
2023-01-28T20:38:16.450Z,101651.81
2023-01-28T20:40:43.851Z,101664.22
2023-01-28T20:43:10.955Z,101659.34
2023-01-28T20:45:37.587Z,101668.13
2023-01-28T20:48:04.183Z,101671.84
2023-01-28T20:50:30.595Z,101676.72
2023-01-28T20:52:57.169Z,101665.97
2023-01-28T20:55:23.661Z,101664.47
2023-01-28T20:57:52.007Z,101666.28
2023-01-28T21:00:19.052Z,101662.91
2023-01-28T21:02:46.039Z,101662.31
2023-01-28T21:05:12.816Z,101665.03
2023-01-28T21:07:39.373Z,101660.81
2023-01-28T21:10:06.672Z,101666.75
2023-01-28T21:12:33.148Z,101668.09
2023-01-28T21:14:59.504Z,101664.00
2023-01-28T21:17:25.938Z,101670.31
2023-01-28T21:19:52.465Z,101664.50
2023-01-28T21:22:20.055Z,101664.13
2023-01-28T21:24:48.912Z,101665.25
2023-01-28T21:27:15.429Z,101666.22
2023-01-28T21:29:42.122Z,101659.84
2023-01-28T21:32:08.529Z,101656.59
2023-01-28T21:34:34.968Z,101655.94
2023-01-28T21:37:01.325Z,101658.44
2023-01-28T21:39:27.680Z,101646.78
2023-01-28T21:41:54.014Z,101656.34
2023-01-28T21:44:20.574Z,101653.13
2023-01-28T21:46:46.981Z,101651.72
2023-01-28T21:49:13.713Z,101647.31
2023-01-28T21:51:40.372Z,101644.88
2023-01-28T21:54:11.494Z,101641.88
2023-01-28T21:56:38.316Z,101639.81
2023-01-28T21:59:23.374Z,101650.03
2023-01-28T22:01:49.881Z,101656.44
2023-01-28T22:04:16.456Z,101644.75
2023-01-28T22:06:43.116Z,101642.94
2023-01-28T22:09:11.867Z,101648.19
2023-01-28T22:11:40.048Z,101641.19
2023-01-28T22:14:07.122Z,101635.63
2023-01-28T22:16:33.690Z,101632.44
2023-01-28T22:19:00.158Z,101634.16
2023-01-28T22:21:26.575Z,101632.50
2023-01-28T22:23:53.063Z,101634.91
2023-01-28T22:26:19.722Z,101633.38
2023-01-28T22:28:46.197Z,101632.69
2023-01-28T22:31:15.806Z,101627.59
2023-01-28T22:33:42.743Z,101624.44
2023-01-28T22:36:13.824Z,101618.47
2023-01-28T22:38:42.567Z,101625.66
2023-01-28T22:41:15.445Z,101632.84
2023-01-28T22:43:41.974Z,101633.56
2023-01-28T22:46:09.737Z,101640.38
2023-01-28T22:48:37.402Z,101636.13
2023-01-28T22:51:06.364Z,101642.84
2023-01-28T22:53:33.477Z,101646.50
2023-01-28T22:56:00.621Z,101643.66
2023-01-28T22:58:27.085Z,101633.91
2023-01-28T23:00:54.592Z,101630.09
2023-01-28T23:03:21.582Z,101626.72
2023-01-28T23:05:48.653Z,101636.59
2023-01-28T23:08:15.143Z,101629.59
2023-01-28T23:10:47.207Z,101630.41
2023-01-28T23:13:17.094Z,101634.75
2023-01-28T23:16:03.553Z,101621.97
2023-01-28T23:18:48.960Z,101616.44
2023-01-28T23:21:38.873Z,101605.31
2023-01-28T23:24:20.792Z,101595.13
2023-01-28T23:26:58.791Z,101592.41
2023-01-28T23:29:28.367Z,101594.06
2023-01-28T23:32:01.289Z,101606.31
2023-01-28T23:34:31.722Z,101606.25
2023-01-28T23:36:58.521Z,101609.13
2023-01-28T23:39:24.967Z,101605.25
2023-01-28T23:41:51.554Z,101605.91
2023-01-28T23:44:18.568Z,101604.13
2023-01-28T23:46:44.962Z,101614.66
2023-01-28T23:49:11.381Z,101614.97
2023-01-28T23:51:37.803Z,101604.28
2023-01-28T23:54:04.336Z,101606.06
2023-01-28T23:56:30.759Z,101611.72
2023-01-28T23:58:57.305Z,101597.63
